Time;durP1;ratioP1;P1;durP2;ratioP2;P2;SDS_P1;SDS_P2;PMS_P1;PMS_P2;Temp;Humidity;BMP_temperature;BMP_pressure;BME280_temperature;BME280_humidity;BME280_pressure;Samples;Min_cycle;Max_cycle;Signal;HPM_P1;HPM_P2
2024/04/07 00:00:23;;;;;;;9.73;7.10;;;;;;;;;;5053628;28;20437;-50
2024/04/07 00:02:50;;;;;;;13.40;7.47;;;;;;;;;;5061332;28;20263;-54
2024/04/07 00:05:17;;;;;;;11.85;7.68;;;;;;;;;;5055083;28;20040;-52
2024/04/07 00:07:43;;;;;;;9.05;7.00;;;;;;;;;;5070489;28;20384;-52
2024/04/07 00:10:09;;;;;;;11.98;7.35;;;;;;;;;;5070317;28;20032;-51
2024/04/07 00:12:36;;;;;;;12.25;7.85;;;;;;;;;;5062973;28;20136;-52
2024/04/07 00:15:03;;;;;;;13.95;9.77;;;;;;;;;;5053780;28;20082;-55
2024/04/07 00:17:29;;;;;;;11.30;7.88;;;;;;;;;;5061391;28;20040;-50
2024/04/07 00:19:56;;;;;;;12.40;7.80;;;;;;;;;;5050379;28;20029;-54
2024/04/07 00:22:23;;;;;;;11.38;7.70;;;;;;;;;;5047240;28;20157;-51
2024/04/07 00:24:49;;;;;;;14.45;8.80;;;;;;;;;;5060185;28;20020;-50
2024/04/07 00:27:16;;;;;;;13.67;8.10;;;;;;;;;;5058666;28;20394;-52
2024/04/07 00:29:44;;;;;;;18.35;8.32;;;;;;;;;;5069931;28;20031;-52
2024/04/07 00:32:10;;;;;;;10.27;7.63;;;;;;;;;;5051883;28;20189;-52
2024/04/07 00:34:36;;;;;;;10.70;7.95;;;;;;;;;;5071431;28;20048;-52
2024/04/07 00:37:03;;;;;;;10.40;7.87;;;;;;;;;;5060976;28;20035;-54
2024/04/07 00:39:29;;;;;;;13.35;7.88;;;;;;;;;;5068691;28;20383;-55
2024/04/07 00:41:55;;;;;;;10.13;7.10;;;;;;;;;;5054597;28;20402;-52
2024/04/07 00:44:21;;;;;;;14.33;7.73;;;;;;;;;;5069145;28;20474;-51
2024/04/07 00:46:47;;;;;;;12.40;8.17;;;;;;;;;;5056901;28;20032;-52
2024/04/07 00:49:14;;;;;;;11.95;8.60;;;;;;;;;;5050481;28;20029;-53
2024/04/07 00:51:40;;;;;;;12.17;8.10;;;;;;;;;;5063081;28;20382;-52
2024/04/07 00:54:07;;;;;;;13.30;8.30;;;;;;;;;;5069901;28;20107;-54
2024/04/07 00:56:34;;;;;;;13.90;8.45;;;;;;;;;;5060920;28;20343;-52
2024/04/07 00:59:02;;;;;;;15.82;8.02;;;;;;;;;;5071439;28;20059;-51
2024/04/07 01:01:29;;;;;;;13.77;7.97;;;;;;;;;;5059391;28;20029;-54
2024/04/07 01:03:55;;;;;;;11.30;8.20;;;;;;;;;;5052403;28;20029;-53
2024/04/07 01:06:21;;;;;;;9.52;8.43;;;;;;;;;;5061255;28;20131;-51
2024/04/07 01:08:49;;;;;;;11.90;7.93;;;;;;;;;;5060439;28;20025;-53
2024/04/07 01:11:16;;;;;;;14.20;8.13;;;;;;;;;;5052237;28;20383;-53
2024/04/07 01:13:42;;;;;;;10.60;7.70;;;;;;;;;;5045336;28;20516;-50
2024/04/07 01:16:08;;;;;;;12.40;7.53;;;;;;;;;;5048644;28;20035;-50
2024/04/07 01:18:34;;;;;;;12.90;8.80;;;;;;;;;;5061078;28;20029;-50
2024/04/07 01:21:00;;;;;;;12.00;8.50;;;;;;;;;;5051410;28;20104;-50
2024/04/07 01:23:26;;;;;;;16.55;9.05;;;;;;;;;;5066719;28;20555;-50
2024/04/07 01:25:53;;;;;;;13.97;8.77;;;;;;;;;;5065655;28;20060;-51
2024/04/07 01:28:19;;;;;;;13.40;9.25;;;;;;;;;;5070571;28;20025;-50
2024/04/07 01:30:45;;;;;;;13.13;8.57;;;;;;;;;;5063568;28;20028;-51
2024/04/07 01:33:11;;;;;;;12.30;7.50;;;;;;;;;;5060872;28;20390;-50
2024/04/07 01:35:37;;;;;;;12.10;8.10;;;;;;;;;;5058271;28;20041;-50
2024/04/07 01:38:04;;;;;;;9.48;7.80;;;;;;;;;;5070050;28;20051;-50
2024/04/07 01:40:33;;;;;;;13.05;7.57;;;;;;;;;;5065257;28;20029;-51
2024/04/07 01:43:00;;;;;;;13.68;8.60;;;;;;;;;;5050976;28;20670;-50
2024/04/07 01:45:26;;;;;;;13.68;9.25;;;;;;;;;;5052024;28;20066;-53
2024/04/07 01:47:52;;;;;;;8.68;7.47;;;;;;;;;;5051028;28;20021;-52
2024/04/07 01:50:18;;;;;;;10.63;8.30;;;;;;;;;;5061961;28;20044;-51
2024/04/07 01:52:44;;;;;;;11.23;8.18;;;;;;;;;;5071062;28;20024;-50
2024/04/07 01:55:11;;;;;;;12.67;8.33;;;;;;;;;;5068083;28;20028;-50
2024/04/07 01:57:37;;;;;;;11.32;8.98;;;;;;;;;;5054820;28;20022;-50
2024/04/07 02:00:07;;;;;;;9.30;8.03;;;;;;;;;;5050541;28;20048;-52
2024/04/07 02:02:37;;;;;;;9.98;7.45;;;;;;;;;;5032184;28;20135;-50
2024/04/07 02:05:05;;;;;;;17.25;8.98;;;;;;;;;;5045274;28;20041;-51
2024/04/07 02:07:35;;;;;;;13.00;8.70;;;;;;;;;;5072822;28;20056;-51
2024/04/07 02:10:02;;;;;;;12.18;8.30;;;;;;;;;;5045951;28;20025;-50
2024/04/07 02:12:29;;;;;;;11.95;9.07;;;;;;;;;;5054102;28;20514;-53
2024/04/07 02:14:55;;;;;;;8.77;7.30;;;;;;;;;;5062382;28;20378;-51
2024/04/07 02:17:21;;;;;;;11.52;8.05;;;;;;;;;;5055357;28;20112;-51
2024/04/07 02:19:52;;;;;;;13.52;9.20;;;;;;;;;;5052835;28;20388;-53
2024/04/07 02:22:18;;;;;;;12.18;8.40;;;;;;;;;;5060528;28;20516;-50
2024/04/07 02:24:45;;;;;;;10.83;8.87;;;;;;;;;;5045364;28;20113;-53
2024/04/07 02:27:11;;;;;;;14.95;8.55;;;;;;;;;;5065982;28;20287;-52
2024/04/07 02:29:37;;;;;;;11.20;8.98;;;;;;;;;;5073328;28;20071;-50
2024/04/07 02:32:04;;;;;;;14.43;9.43;;;;;;;;;;5057847;28;20413;-51
2024/04/07 02:34:30;;;;;;;11.17;8.93;;;;;;;;;;5052647;28;20029;-50
2024/04/07 02:36:56;;;;;;;10.77;8.20;;;;;;;;;;5061008;28;20059;-54
2024/04/07 02:39:22;;;;;;;10.52;8.70;;;;;;;;;;5060115;28;20024;-54
2024/04/07 02:41:48;;;;;;;15.55;9.15;;;;;;;;;;5073041;28;20119;-50
2024/04/07 02:44:16;;;;;;;10.27;8.10;;;;;;;;;;5072099;28;20044;-50
2024/04/07 02:49:27;;;;;;;13.82;9.48;;;;;;;;;;5057362;28;20264;-50
2024/04/07 02:51:53;;;;;;;13.85;7.97;;;;;;;;;;5062936;28;20023;-50
2024/04/07 02:54:19;;;;;;;9.60;7.38;;;;;;;;;;5043715;28;20407;-50
2024/04/07 02:56:45;;;;;;;11.13;8.02;;;;;;;;;;5057377;28;20075;-54
2024/04/07 02:59:12;;;;;;;10.87;7.73;;;;;;;;;;5068773;28;20024;-52
2024/04/07 03:01:38;;;;;;;11.87;7.83;;;;;;;;;;5069240;28;20025;-52
2024/04/07 03:04:04;;;;;;;10.88;7.55;;;;;;;;;;5067796;28;20479;-50
2024/04/07 03:06:32;;;;;;;12.43;8.02;;;;;;;;;;5055299;28;20058;-50
2024/04/07 03:08:58;;;;;;;15.50;8.43;;;;;;;;;;5068515;28;20074;-50
2024/04/07 03:11:24;;;;;;;10.50;8.20;;;;;;;;;;5052922;28;20088;-50
2024/04/07 03:13:50;;;;;;;12.47;7.63;;;;;;;;;;5061433;28;20013;-51
2024/04/07 03:16:17;;;;;;;11.95;7.78;;;;;;;;;;5062556;28;20062;-51
2024/04/07 03:18:43;;;;;;;10.68;8.20;;;;;;;;;;5072927;28;20040;-50
2024/04/07 03:21:10;;;;;;;13.57;8.03;;;;;;;;;;5055368;28;20036;-50
2024/04/07 03:23:36;;;;;;;13.20;8.70;;;;;;;;;;5051924;28;20035;-53
2024/04/07 03:26:02;;;;;;;20.25;9.95;;;;;;;;;;5052888;28;20024;-51
2024/04/07 03:28:28;;;;;;;15.77;8.95;;;;;;;;;;5054009;28;20096;-51
2024/04/07 03:30:54;;;;;;;12.05;8.25;;;;;;;;;;5057159;28;20031;-53
2024/04/07 03:33:21;;;;;;;13.48;8.38;;;;;;;;;;5072776;28;20024;-50
2024/04/07 03:35:47;;;;;;;13.07;8.60;;;;;;;;;;5072866;28;20047;-51
2024/04/07 03:38:13;;;;;;;10.80;9.13;;;;;;;;;;5068302;28;20466;-50
2024/04/07 03:40:39;;;;;;;13.13;9.57;;;;;;;;;;5052517;28;20553;-50
2024/04/07 03:43:07;;;;;;;12.65;8.50;;;;;;;;;;5066210;28;20021;-51
2024/04/07 03:45:33;;;;;;;15.23;9.40;;;;;;;;;;5056084;28;20058;-50
2024/04/07 03:48:01;;;;;;;10.45;8.27;;;;;;;;;;5072405;28;20073;-51
2024/04/07 03:50:27;;;;;;;12.00;8.87;;;;;;;;;;5054256;28;20025;-49
2024/04/07 03:52:53;;;;;;;11.23;7.97;;;;;;;;;;5065571;28;20263;-49
2024/04/07 03:55:19;;;;;;;16.17;8.55;;;;;;;;;;5052464;28;20029;-51
2024/04/07 03:57:46;;;;;;;10.97;8.80;;;;;;;;;;5054826;28;20035;-50
2024/04/07 04:00:12;;;;;;;9.38;8.10;;;;;;;;;;5070165;28;20033;-55
2024/04/07 04:02:41;;;;;;;13.25;8.43;;;;;;;;;;5070394;28;20043;-55
2024/04/07 04:05:07;;;;;;;12.98;7.95;;;;;;;;;;5072125;28;20027;-53
2024/04/07 04:07:34;;;;;;;13.50;8.97;;;;;;;;;;5072310;28;20376;-51
2024/04/07 04:10:00;;;;;;;11.10;7.85;;;;;;;;;;5070644;28;20016;-53
2024/04/07 04:12:28;;;;;;;13.40;8.63;;;;;;;;;;5072170;28;20565;-55
2024/04/07 04:14:54;;;;;;;12.27;7.88;;;;;;;;;;5072280;28;20435;-51
2024/04/07 04:17:20;;;;;;;13.32;7.88;;;;;;;;;;5070717;28;20032;-53
2024/04/07 04:19:47;;;;;;;12.75;8.70;;;;;;;;;;5071728;28;20545;-55
2024/04/07 04:22:13;;;;;;;13.47;9.10;;;;;;;;;;5072003;28;20036;-54
2024/04/07 04:24:39;;;;;;;14.93;8.93;;;;;;;;;;5070354;28;20127;-51
2024/04/07 04:27:06;;;;;;;9.38;7.90;;;;;;;;;;5071772;28;20368;-53
2024/04/07 04:29:33;;;;;;;11.32;7.85;;;;;;;;;;5071558;28;20436;-52
2024/04/07 04:31:59;;;;;;;;;;;;;;;;;;5061015;22;20042;-57
2024/04/07 04:34:25;;;;;;;11.63;7.68;;;;;;;;;;5031784;28;20282;-56
2024/04/07 04:36:52;;;;;;;9.82;8.02;;;;;;;;;;5031902;28;20026;-53
2024/04/07 04:39:22;;;;;;;10.68;8.02;;;;;;;;;;5031929;28;20026;-54
2024/04/07 04:41:48;;;;;;;15.20;9.07;;;;;;;;;;5031686;28;20029;-55
2024/04/07 04:44:15;;;;;;;14.27;8.82;;;;;;;;;;5031725;28;20047;-56
2024/04/07 04:46:41;;;;;;;;;;;;;;;;;;5032114;28;20021;-55
2024/04/07 04:49:11;;;;;;;13.80;8.43;;;;;;;;;;5031696;28;19952;-56
2024/04/07 04:51:37;;;;;;;17.52;8.70;;;;;;;;;;5031452;28;20049;-56
2024/04/07 04:54:04;;;;;;;12.80;8.60;;;;;;;;;;5031731;28;20028;-55
2024/04/07 04:56:30;;;;;;;12.15;7.28;;;;;;;;;;5031583;28;20029;-54
2024/04/07 04:58:59;;;;;;;9.57;7.80;;;;;;;;;;5031493;28;20104;-56
2024/04/07 05:01:26;;;;;;;10.77;8.07;;;;;;;;;;5013598;28;20272;-54
2024/04/07 05:03:52;;;;;;;15.15;8.88;;;;;;;;;;5014087;28;20084;-51
2024/04/07 05:06:19;;;;;;;12.75;7.93;;;;;;;;;;5031495;28;20506;-56
2024/04/07 05:08:46;;;;;;;11.35;7.55;;;;;;;;;;5014120;28;20029;-54
2024/04/07 05:11:12;;;;;;;11.15;8.02;;;;;;;;;;5031064;28;20108;-55
2024/04/07 05:13:38;;;;;;;12.80;7.32;;;;;;;;;;5031404;28;20017;-55
2024/04/07 05:16:05;;;;;;;10.77;7.43;;;;;;;;;;5031408;28;20491;-56
2024/04/07 05:18:32;;;;;;;11.40;7.77;;;;;;;;;;5013723;28;20025;-56
2024/04/07 05:21:05;;;;;;;9.30;7.32;;;;;;;;;;5031137;28;20098;-57
2024/04/07 05:23:36;;;;;;;10.85;7.20;;;;;;;;;;5031256;28;20395;-55
2024/04/07 05:26:09;;;;;;;10.82;6.80;;;;;;;;;;5031236;28;20491;-55
2024/04/07 05:28:35;;;;;;;12.23;6.85;;;;;;;;;;5013605;28;20484;-54
2024/04/07 05:31:03;;;;;;;14.70;7.63;;;;;;;;;;5030984;28;20038;-57
2024/04/07 05:33:30;;;;;;;10.10;6.60;;;;;;;;;;5013622;28;20028;-54
2024/04/07 05:35:56;;;;;;;11.18;6.30;;;;;;;;;;5031376;28;20123;-55
2024/04/07 05:38:22;;;;;;;10.77;6.35;;;;;;;;;;5033759;28;20029;-56
2024/04/07 05:40:55;;;;;;;12.65;6.68;;;;;;;;;;5000823;28;20033;-57
2024/04/07 05:43:22;;;;;;;10.35;6.95;;;;;;;;;;5034905;28;20033;-55
2024/04/07 05:45:48;;;;;;;8.67;7.33;;;;;;;;;;5000542;28;20099;-57
2024/04/07 05:48:14;;;;;;;10.50;7.10;;;;;;;;;;5000724;28;20105;-51
2024/04/07 05:50:40;;;;;;;9.85;6.88;;;;;;;;;;5034475;28;20022;-54
2024/04/07 05:53:07;;;;;;;9.43;7.25;;;;;;;;;;5016871;28;20108;-53
2024/04/07 05:55:36;;;;;;;8.27;5.97;;;;;;;;;;5016673;28;20079;-56
2024/04/07 05:58:03;;;;;;;11.07;7.07;;;;;;;;;;5034083;28;20441;-52
2024/04/07 06:00:31;;;;;;;9.68;6.50;;;;;;;;;;5034290;28;20075;-55
2024/04/07 06:02:57;;;;;;;8.85;6.10;;;;;;;;;;5034638;28;20026;-53
2024/04/07 06:05:24;;;;;;;9.90;7.20;;;;;;;;;;5015432;28;20057;-56
2024/04/07 06:07:51;;;;;;;9.50;5.32;;;;;;;;;;5033866;28;20104;-53
2024/04/07 06:10:17;;;;;;;8.32;5.97;;;;;;;;;;5034260;28;20032;-55
2024/04/07 06:12:43;;;;;;;7.20;6.20;;;;;;;;;;5034315;28;20053;-56
2024/04/07 06:15:10;;;;;;;11.60;6.55;;;;;;;;;;5034442;28;20033;-51
2024/04/07 06:17:36;;;;;;;7.73;5.43;;;;;;;;;;5033854;28;20183;-51
2024/04/07 06:20:04;;;;;;;7.43;5.47;;;;;;;;;;5014496;28;20025;-53
2024/04/07 06:22:30;;;;;;;8.52;5.97;;;;;;;;;;5032219;28;20029;-56
2024/04/07 06:24:57;;;;;;;6.05;4.93;;;;;;;;;;5032184;28;20499;-51
2024/04/07 06:27:24;;;;;;;9.03;5.57;;;;;;;;;;5032381;28;20488;-51
2024/04/07 06:29:50;;;;;;;8.85;5.18;;;;;;;;;;5032766;28;20033;-51
2024/04/07 06:32:16;;;;;;;11.18;6.40;;;;;;;;;;5033022;28;20387;-53
2024/04/07 06:34:42;;;;;;;9.35;5.88;;;;;;;;;;5032837;28;20100;-51
2024/04/07 06:37:08;;;;;;;7.80;5.17;;;;;;;;;;5034071;28;20029;-52
2024/04/07 06:39:34;;;;;;;11.52;5.30;;;;;;;;;;5016072;28;20022;-55
2024/04/07 06:42:01;;;;;;;10.27;5.10;;;;;;;;;;5033731;28;20116;-56
2024/04/07 06:44:27;;;;;;;10.55;4.97;;;;;;;;;;5033811;28;20071;-56
2024/04/07 06:46:53;;;;;;;10.50;5.90;;;;;;;;;;5033754;28;20025;-55
2024/04/07 06:49:19;;;;;;;6.78;4.95;;;;;;;;;;5033362;28;20105;-55
2024/04/07 06:51:46;;;;;;;8.88;4.78;;;;;;;;;;5015522;28;20033;-53
2024/04/07 06:54:12;;;;;;;12.43;5.18;;;;;;;;;;5033503;28;20026;-56
2024/04/07 06:56:38;;;;;;;8.40;5.75;;;;;;;;;;5033429;28;20018;-53
2024/04/07 06:59:04;;;;;;;12.48;6.10;;;;;;;;;;5033286;28;20433;-55
2024/04/07 07:01:30;;;;;;;7.38;5.35;;;;;;;;;;5033123;28;20022;-55
2024/04/07 07:03:56;;;;;;;6.83;5.20;;;;;;;;;;5015563;28;20508;-56
2024/04/07 07:06:23;;;;;;;7.68;5.38;;;;;;;;;;5033310;28;20033;-55
2024/04/07 07:08:49;;;;;;;11.57;5.18;;;;;;;;;;5033385;28;20018;-52
2024/04/07 07:11:15;;;;;;;8.03;5.37;;;;;;;;;;5033022;28;20480;-51
2024/04/07 07:13:44;;;;;;;10.73;6.75;;;;;;;;;;5033363;28;20021;-53
2024/04/07 07:16:11;;;;;;;9.05;6.07;;;;;;;;;;5033167;28;20040;-55
2024/04/07 07:18:37;;;;;;;10.03;4.63;;;;;;;;;;5033228;28;20037;-56
2024/04/07 07:21:06;;;;;;;7.18;4.45;;;;;;;;;;5032916;28;20056;-54
2024/04/07 07:23:33;;;;;;;7.68;4.85;;;;;;;;;;5033088;28;20017;-56
2024/04/07 07:26:02;;;;;;;8.90;4.83;;;;;;;;;;5032966;28;20373;-52
2024/04/07 07:28:29;;;;;;;9.35;4.30;;;;;;;;;;5032989;28;20268;-56
2024/04/07 07:30:55;;;;;;;;;;;;;;;;;;5032958;28;20025;-56
2024/04/07 07:33:21;;;;;;;8.10;4.72;;;;;;;;;;5032964;28;20449;-56
2024/04/07 07:35:50;;;;;;;7.80;4.72;;;;;;;;;;5032794;28;20026;-56
2024/04/07 07:38:17;;;;;;;9.27;4.28;;;;;;;;;;5032860;28;20038;-56
2024/04/07 07:40:43;;;;;;;10.23;5.03;;;;;;;;;;5032502;28;20041;-55
2024/04/07 07:43:09;;;;;;;10.65;5.03;;;;;;;;;;5032742;28;20271;-55
2024/04/07 07:45:35;;;;;;;10.98;4.55;;;;;;;;;;5032580;28;20036;-56
2024/04/07 07:48:02;;;;;;;10.20;3.85;;;;;;;;;;5014894;28;20504;-55
2024/04/07 07:50:28;;;;;;;6.35;3.42;;;;;;;;;;5014773;28;20100;-56
2024/04/07 07:52:54;;;;;;;7.32;3.50;;;;;;;;;;5032634;28;20087;-54
2024/04/07 07:55:20;;;;;;;4.85;3.65;;;;;;;;;;5032618;28;20038;-53
2024/04/07 07:57:47;;;;;;;5.50;2.77;;;;;;;;;;5014844;28;20463;-56
2024/04/07 08:00:13;;;;;;;9.32;3.58;;;;;;;;;;5013709;28;20033;-58
2024/04/07 08:02:39;;;;;;;3.80;2.70;;;;;;;;;;5032717;28;20034;-58
2024/04/07 08:05:06;;;;;;;7.32;3.28;;;;;;;;;;5014728;28;20060;-58
2024/04/07 08:07:33;;;;;;;5.13;3.20;;;;;;;;;;4998213;28;20487;-56
2024/04/07 08:10:00;;;;;;;18.23;3.70;;;;;;;;;;5032011;28;20022;-58
2024/04/07 08:12:26;;;;;;;6.15;3.10;;;;;;;;;;5032138;28;20049;-57
2024/04/07 08:14:52;;;;;;;4.27;2.03;;;;;;;;;;5014726;28;20033;-58
2024/04/07 08:17:18;;;;;;;4.75;2.65;;;;;;;;;;5032185;28;20072;-58
2024/04/07 08:19:46;;;;;;;4.87;2.23;;;;;;;;;;5032081;28;20061;-58
2024/04/07 08:22:12;;;;;;;8.00;2.90;;;;;;;;;;5014335;28;20098;-58
2024/04/07 08:24:38;;;;;;;5.03;2.47;;;;;;;;;;5031903;28;20037;-58
2024/04/07 08:27:04;;;;;;;5.85;3.95;;;;;;;;;;5032069;28;20028;-56
2024/04/07 08:29:30;;;;;;;6.70;2.60;;;;;;;;;;5032029;28;20440;-56
2024/04/07 08:31:57;;;;;;;5.20;2.30;;;;;;;;;;5031665;28;20371;-58
2024/04/07 08:34:23;;;;;;;4.80;1.93;;;;;;;;;;5032049;28;20108;-54
2024/04/07 08:36:49;;;;;;;2.73;1.77;;;;;;;;;;5031862;28;20094;-56
2024/04/07 08:39:15;;;;;;;6.67;2.00;;;;;;;;;;5031728;28;20164;-58
2024/04/07 08:41:44;;;;;;;2.60;2.17;;;;;;;;;;5031469;28;20031;-56
2024/04/07 08:44:10;;;;;;;4.38;2.33;;;;;;;;;;5031695;28;20479;-58
2024/04/07 08:46:37;;;;;;;4.65;2.30;;;;;;;;;;5031672;28;20406;-57
2024/04/07 08:49:04;;;;;;;4.47;2.00;;;;;;;;;;5031690;28;20032;-58
2024/04/07 08:51:30;;;;;;;5.22;2.10;;;;;;;;;;5031434;28;20033;-57
2024/04/07 08:54:01;;;;;;;5.63;2.10;;;;;;;;;;5031611;28;20447;-58
2024/04/07 08:56:28;;;;;;;3.72;1.75;;;;;;;;;;5013908;28;20091;-57
2024/04/07 08:58:54;;;;;;;3.63;2.28;;;;;;;;;;5031501;28;20025;-58
2024/04/07 09:01:23;;;;;;;4.78;1.88;;;;;;;;;;5031244;28;20034;-55
2024/04/07 09:03:50;;;;;;;2.10;1.65;;;;;;;;;;5013998;28;20108;-55
2024/04/07 09:06:16;;;;;;;4.90;2.13;;;;;;;;;;5031433;28;20040;-58
2024/04/07 09:08:43;;;;;;;4.20;2.55;;;;;;;;;;5031328;28;20458;-55
2024/04/07 09:11:10;;;;;;;5.30;1.75;;;;;;;;;;5013441;28;20090;-56
2024/04/07 09:13:37;;;;;;;7.50;2.03;;;;;;;;;;5016810;28;20557;-58
2024/04/07 09:16:03;;;;;;;;;;;;;;;;;;5018538;28;20388;-56
2024/04/07 09:18:30;;;;;;;4.60;2.25;;;;;;;;;;5035517;28;20000;-56
2024/04/07 09:20:56;;;;;;;3.57;2.20;;;;;;;;;;5035704;28;20025;-56
2024/04/07 09:23:22;;;;;;;5.83;2.17;;;;;;;;;;5017499;28;20309;-57
2024/04/07 09:25:53;;;;;;;5.22;2.67;;;;;;;;;;5017444;28;20037;-55
2024/04/07 09:28:19;;;;;;;7.43;2.13;;;;;;;;;;5017699;28;20037;-56
2024/04/07 09:30:46;;;;;;;3.03;2.13;;;;;;;;;;5035231;28;20036;-54
2024/04/07 09:33:13;;;;;;;4.55;1.92;;;;;;;;;;5035189;28;20407;-56
2024/04/07 09:35:39;;;;;;;4.72;1.80;;;;;;;;;;5017283;28;20042;-57
2024/04/07 09:38:05;;;;;;;3.20;1.80;;;;;;;;;;5017527;28;20112;-58
2024/04/07 09:40:32;;;;;;;6.20;2.00;;;;;;;;;;5035007;28;20279;-56
2024/04/07 09:42:59;;;;;;;2.90;1.52;;;;;;;;;;5035035;28;20065;-56
2024/04/07 09:45:26;;;;;;;8.90;2.25;;;;;;;;;;5017116;28;20026;-57
2024/04/07 09:47:58;;;;;;;5.47;1.40;;;;;;;;;;5034889;28;20373;-58
2024/04/07 09:50:35;;;;;;;4.25;1.17;;;;;;;;;;5034471;28;20045;-57
2024/04/07 09:53:06;;;;;;;2.17;1.53;;;;;;;;;;5034887;28;20048;-56
2024/04/07 09:55:36;;;;;;;6.07;2.22;;;;;;;;;;5034765;28;20080;-55
2024/04/07 09:58:03;;;;;;;1.80;1.52;;;;;;;;;;5017005;28;20040;-55
2024/04/07 10:00:30;;;;;;;6.70;2.20;;;;;;;;;;5034442;28;20032;-59
2024/04/07 10:02:56;;;;;;;;;;;;;;;;;;5034981;28;20026;-58
2024/04/07 10:05:22;;;;;;;4.03;1.75;;;;;;;;;;5016649;28;19920;-57
2024/04/07 10:07:49;;;;;;;4.60;2.03;;;;;;;;;;5000496;28;20056;-56
2024/04/07 10:10:16;;;;;;;2.63;1.52;;;;;;;;;;5034314;28;20021;-56
2024/04/07 10:12:42;;;;;;;6.28;1.98;;;;;;;;;;5034547;28;20105;-57
2024/04/07 10:15:18;;;;;;;4.53;2.27;;;;;;;;;;5034472;28;20033;-57
2024/04/07 10:17:44;;;;;;;2.40;1.48;;;;;;;;;;5034544;28;20072;-57
2024/04/07 10:20:13;;;;;;;10.33;3.33;;;;;;;;;;5034329;28;20017;-57
2024/04/07 10:22:39;;;;;;;3.28;1.70;;;;;;;;;;5033894;28;20116;-58
2024/04/07 10:25:06;;;;;;;3.40;1.60;;;;;;;;;;5033878;28;20040;-58
2024/04/07 10:27:32;;;;;;;3.15;1.95;;;;;;;;;;5016453;28;20033;-57
2024/04/07 10:29:59;;;;;;;3.08;1.50;;;;;;;;;;5015960;28;20026;-58
2024/04/07 10:32:27;;;;;;;2.40;1.67;;;;;;;;;;5034604;28;20116;-57
2024/04/07 10:35:05;;;;;;;3.28;1.48;;;;;;;;;;5034010;28;20029;-52
2024/04/07 10:37:32;;;;;;;4.10;1.58;;;;;;;;;;5034024;28;20033;-58
2024/04/07 10:39:59;;;;;;;6.68;1.83;;;;;;;;;;5033696;28;20091;-57
2024/04/07 10:42:25;;;;;;;4.40;1.67;;;;;;;;;;5015908;28;20029;-53
2024/04/07 10:44:52;;;;;;;1.10;1.00;;;;;;;;;;5043344;28;20017;-54
2024/04/07 10:47:19;;;;;;;2.42;1.52;;;;;;;;;;5039581;28;20036;-58
2024/04/07 10:49:45;;;;;;;2.92;1.85;;;;;;;;;;5050294;28;20041;-53
2024/04/07 10:52:15;;;;;;;4.05;1.40;;;;;;;;;;5050420;28;20032;-57
2024/04/07 10:54:41;;;;;;;2.40;1.23;;;;;;;;;;5053642;28;20445;-57
2024/04/07 10:57:11;;;;;;;3.75;1.48;;;;;;;;;;5041015;28;20025;-54
2024/04/07 10:59:38;;;;;;;3.72;1.38;;;;;;;;;;5041695;28;20049;-58
2024/04/07 11:02:05;;;;;;;4.07;1.60;;;;;;;;;;5043317;28;20048;-57
2024/04/07 11:04:32;;;;;;;6.55;1.77;;;;;;;;;;5033018;28;20280;-58
2024/04/07 11:07:02;;;;;;;5.70;1.92;;;;;;;;;;5032935;28;20495;-58
2024/04/07 11:09:28;;;;;;;4.53;2.15;;;;;;;;;;5015352;28;20065;-58
2024/04/07 11:11:55;;;;;;;8.50;2.13;;;;;;;;;;5041362;28;20025;-56
2024/04/07 11:14:28;;;;;;;3.10;2.10;;;;;;;;;;5048296;28;20037;-55
2024/04/07 11:16:55;;;;;;;3.72;2.03;;;;;;;;;;5023642;28;20078;-59
2024/04/07 11:19:23;;;;;;;4.30;2.15;;;;;;;;;;5032248;28;20487;-59
2024/04/07 11:21:50;;;;;;;3.40;1.98;;;;;;;;;;5041804;28;20025;-57
2024/04/07 11:24:16;;;;;;;2.10;1.77;;;;;;;;;;5038223;28;20037;-58
2024/04/07 11:26:42;;;;;;;6.10;1.95;;;;;;;;;;5032955;28;20368;-58
2024/04/07 11:29:10;;;;;;;3.20;1.87;;;;;;;;;;5051300;28;20116;-58
2024/04/07 11:31:37;;;;;;;7.63;2.28;;;;;;;;;;5046402;28;20259;-59
2024/04/07 11:34:03;;;;;;;2.67;1.70;;;;;;;;;;5036182;28;20028;-59
2024/04/07 11:36:29;;;;;;;4.97;2.25;;;;;;;;;;5041548;28;20021;-57
2024/04/07 11:38:55;;;;;;;3.35;2.00;;;;;;;;;;5050976;28;20029;-56
2024/04/07 11:41:22;;;;;;;4.45;2.40;;;;;;;;;;5020642;28;20087;-58
2024/04/07 11:43:49;;;;;;;3.38;2.00;;;;;;;;;;5042231;28;20048;-55
2024/04/07 11:46:16;;;;;;;5.40;3.25;;;;;;;;;;5013217;28;20030;-58
2024/04/07 11:48:42;;;;;;;6.13;2.63;;;;;;;;;;5035262;28;20026;-59
2024/04/07 11:51:09;;;;;;;5.60;2.38;;;;;;;;;;5034887;28;20036;-57
2024/04/07 11:53:36;;;;;;;4.53;2.13;;;;;;;;;;5038117;28;20018;-58
2024/04/07 11:56:03;;;;;;;5.65;2.88;;;;;;;;;;5034225;28;20514;-59
2024/04/07 11:58:29;;;;;;;3.35;2.17;;;;;;;;;;5032543;28;20048;-59
2024/04/07 12:00:56;;;;;;;5.90;2.63;;;;;;;;;;5037621;28;20025;-59
2024/04/07 12:03:22;;;;;;;3.35;2.45;;;;;;;;;;5050526;28;20064;-58
2024/04/07 12:05:48;;;;;;;3.72;2.13;;;;;;;;;;5046520;28;20017;-59
2024/04/07 12:08:15;;;;;;;4.05;2.50;;;;;;;;;;5045583;28;20036;-59
2024/04/07 12:10:41;;;;;;;5.90;3.05;;;;;;;;;;5050665;28;20574;-59
2024/04/07 12:13:07;;;;;;;4.25;2.95;;;;;;;;;;5031719;28;20026;-58
2024/04/07 12:15:33;;;;;;;3.47;2.10;;;;;;;;;;5041032;28;20033;-59
2024/04/07 12:18:00;;;;;;;4.93;2.67;;;;;;;;;;5041412;28;20114;-58
2024/04/07 12:20:26;;;;;;;8.20;3.15;;;;;;;;;;5031142;28;20036;-59
2024/04/07 12:22:52;;;;;;;4.28;2.70;;;;;;;;;;5031633;28;20121;-59
2024/04/07 12:25:18;;;;;;;4.47;2.63;;;;;;;;;;5049976;28;20471;-59
2024/04/07 12:27:45;;;;;;;7.90;2.45;;;;;;;;;;5012597;28;20437;-58
2024/04/07 12:30:11;;;;;;;3.25;2.00;;;;;;;;;;5012202;28;20099;-56
2024/04/07 12:32:37;;;;;;;7.85;2.53;;;;;;;;;;5013094;28;20084;-58
2024/04/07 12:35:03;;;;;;;5.47;2.78;;;;;;;;;;5030138;28;20041;-58
2024/04/07 12:37:29;;;;;;;4.90;2.40;;;;;;;;;;5030438;28;20526;-59
2024/04/07 12:39:56;;;;;;;6.75;2.90;;;;;;;;;;5033199;28;20056;-58
2024/04/07 12:42:22;;;;;;;7.68;2.63;;;;;;;;;;5040728;28;20037;-57
2024/04/07 12:44:48;;;;;;;9.75;3.55;;;;;;;;;;5030455;28;20044;-59
2024/04/07 12:47:20;;;;;;;4.07;3.38;;;;;;;;;;5048051;28;20031;-57
2024/04/07 12:49:46;;;;;;;5.43;3.10;;;;;;;;;;5048061;28;20431;-59
2024/04/07 12:52:12;;;;;;;7.93;3.50;;;;;;;;;;5033795;28;20037;-59
2024/04/07 12:54:38;;;;;;;6.22;2.53;;;;;;;;;;5049899;28;20052;-58
2024/04/07 12:57:05;;;;;;;7.40;2.55;;;;;;;;;;5030840;28;20022;-58
2024/04/07 12:59:31;;;;;;;6.20;3.63;;;;;;;;;;5030022;28;20028;-59
2024/04/07 13:01:58;;;;;;;4.72;2.70;;;;;;;;;;5044884;28;20029;-57
2024/04/07 13:04:24;;;;;;;;;;;;;;;;;;5016355;28;20044;-59
2024/04/07 13:06:50;;;;;;;5.00;2.58;;;;;;;;;;5012190;28;20035;-59
2024/04/07 13:09:18;;;;;;;9.45;3.47;;;;;;;;;;5012381;28;20038;-60
2024/04/07 13:11:44;;;;;;;8.05;3.15;;;;;;;;;;5043919;28;20100;-59
2024/04/07 13:14:11;;;;;;;5.20;2.58;;;;;;;;;;5036628;28;20510;-59
2024/04/07 13:16:40;;;;;;;6.65;3.28;;;;;;;;;;5040965;28;20174;-59
2024/04/07 13:19:06;;;;;;;6.80;2.45;;;;;;;;;;5031919;28;20480;-59
2024/04/07 13:21:32;;;;;;;9.15;2.78;;;;;;;;;;5049427;28;20029;-59
2024/04/07 13:23:58;;;;;;;8.48;3.17;;;;;;;;;;5029735;28;20040;-60
2024/04/07 13:26:24;;;;;;;5.88;2.78;;;;;;;;;;5040670;28;20479;-60
2024/04/07 13:28:51;;;;;;;5.35;2.63;;;;;;;;;;5045072;28;20029;-60
2024/04/07 13:31:17;;;;;;;;;;;;;;;;;;5034556;28;20411;-52
2024/04/07 13:33:44;;;;;;;5.60;2.75;;;;;;;;;;5032266;28;19913;-55
2024/04/07 13:36:10;;;;;;;6.22;3.05;;;;;;;;;;5039016;28;20187;-56
2024/04/07 13:38:37;;;;;;;4.20;2.53;;;;;;;;;;5029278;28;20391;-55
2024/04/07 13:41:03;;;;;;;6.93;2.72;;;;;;;;;;5015791;28;20017;-54
2024/04/07 13:43:29;;;;;;;3.30;2.53;;;;;;;;;;5051234;28;20475;-56
2024/04/07 13:45:56;;;;;;;4.43;3.08;;;;;;;;;;5024591;28;20447;-52
2024/04/07 13:48:22;;;;;;;7.65;3.45;;;;;;;;;;5046078;28;20064;-51
2024/04/07 13:50:57;;;;;;;7.60;2.35;;;;;;;;;;5030820;28;20096;-53
2024/04/07 13:53:24;;;;;;;7.07;3.00;;;;;;;;;;5017176;28;20503;-57
2024/04/07 13:55:50;;;;;;;8.25;2.88;;;;;;;;;;5032202;28;20107;-56
2024/04/07 13:58:16;;;;;;;;;;;;;;;;;;5052055;28;20376;-52
2024/04/07 14:00:44;;;;;;;5.20;2.30;;;;;;;;;;5052561;28;19915;-54
2024/04/07 14:03:10;;;;;;;6.07;2.35;;;;;;;;;;5046387;28;20033;-59
2024/04/07 14:05:40;;;;;;;;;;;;;;;;;;5035056;28;20025;-57
2024/04/07 14:08:07;;;;;;;5.90;2.42;;;;;;;;;;5034639;28;19909;-50
2024/04/07 14:10:36;;;;;;;7.38;2.88;;;;;;;;;;5035763;28;20032;-50
2024/04/07 14:13:03;;;;;;;5.97;2.80;;;;;;;;;;5050461;28;20047;-51
2024/04/07 14:15:29;;;;;;;7.22;2.97;;;;;;;;;;5046679;28;20040;-53
2024/04/07 14:17:55;;;;;;;;;;;;;;;;;;5046101;28;20033;-48
2024/04/07 14:20:22;;;;;;;4.25;2.33;;;;;;;;;;5050443;28;19991;-53
2024/04/07 14:22:48;;;;;;;;;;;;;;;;;;5054730;28;20025;-51
2024/04/07 14:25:14;;;;;;;5.18;2.80;;;;;;;;;;5040292;28;19962;-50
2024/04/07 14:27:40;;;;;;;5.68;3.08;;;;;;;;;;5049253;28;20026;-50
2024/04/07 14:30:07;;;;;;;7.15;2.92;;;;;;;;;;5044917;28;20024;-50
2024/04/07 14:32:33;;;;;;;;;;;;;;;;;;5016879;28;20037;-53
2024/04/07 14:34:59;;;;;;;3.67;2.60;;;;;;;;;;5045586;28;20002;-50
2024/04/07 14:37:25;;;;;;;7.20;3.35;;;;;;;;;;5053934;28;20039;-51
2024/04/07 14:39:51;;;;;;;6.82;3.50;;;;;;;;;;5033712;28;20600;-52